Terminal Aerodrome Forecast
Issued by NWS Birmingham, AL

Home | Current Version | Previous Version | Text Only | Print | Product List | Glossary On
Versions: 1 2 3 4 5 6 7 8 9 10 11 12 13 14 15 16 17 18 19
000
FTUS44 KBMX 041100
TAFBHM
TAF
KBHM 041123Z 0412/0512 21011KT 3SM BR OVC006
      TEMPO 0412/0415 21005KT 2SM BR OVC004
     FM041800 21012G18KT P6SM OVC015
     FM042200 28012KT 5SM SHRA OVC020
     FM050400 34009KT 4SM -RA BR OVC007=

USA.gov is the U.S. government's official web portal to all federal, state and local government web resources and services.